createdAt,value
2023-03-26T00:02:19.450Z,7.22
2023-03-26T00:04:53.233Z,7.22
2023-03-26T00:07:24.848Z,7.19
2023-03-26T00:09:58.024Z,7.13
2023-03-26T00:12:29.607Z,7.09
2023-03-26T00:15:01.178Z,7.03
2023-03-26T00:17:33.575Z,7.01
2023-03-26T00:20:05.221Z,6.97
2023-03-26T00:22:36.773Z,7.00
2023-03-26T00:25:08.452Z,6.97
2023-03-26T00:27:40.354Z,6.96
2023-03-26T00:30:12.521Z,6.95
2023-03-26T00:32:44.507Z,6.96
2023-03-26T00:35:25.443Z,6.91
2023-03-26T00:37:58.390Z,6.92
2023-03-26T00:40:30.189Z,6.87
2023-03-26T00:43:02.397Z,6.88
2023-03-26T00:45:33.975Z,6.90
2023-03-26T00:48:05.858Z,6.90
2023-03-26T00:50:37.532Z,6.75
2023-03-26T00:53:09.644Z,6.81
2023-03-26T00:55:43.047Z,6.82
2023-03-26T00:58:15.880Z,6.76
2023-03-26T01:00:57.413Z,6.75
2023-03-26T01:03:34.048Z,6.72
2023-03-26T01:06:12.759Z,6.69
2023-03-26T01:08:47.155Z,6.67
2023-03-26T01:11:28.102Z,6.70
2023-03-26T01:14:04.527Z,6.64
2023-03-26T01:16:47.207Z,6.68
2023-03-26T01:19:24.977Z,6.61
2023-03-26T01:21:58.020Z,6.65
2023-03-26T01:24:29.667Z,6.67
2023-03-26T01:27:11.580Z,6.70
2023-03-26T01:29:46.926Z,6.62
2023-03-26T01:32:22.674Z,6.66
2023-03-26T01:35:17.314Z,6.69
2023-03-26T01:38:13.684Z,6.66
2023-03-26T01:40:52.242Z,6.67
2023-03-26T01:43:51.390Z,6.64
2023-03-26T01:46:26.008Z,6.67
2023-03-26T01:48:57.589Z,6.67
2023-03-26T01:51:32.020Z,6.69
2023-03-26T01:54:06.083Z,6.64
2023-03-26T01:56:51.080Z,6.66
2023-03-26T01:59:41.295Z,6.70
2023-03-26T02:02:16.751Z,6.75
2023-03-26T02:05:09.537Z,6.75
2023-03-26T02:07:53.893Z,6.77
2023-03-26T02:10:30.604Z,6.78
2023-03-26T02:13:02.642Z,6.76
2023-03-26T02:15:34.536Z,6.82
2023-03-26T02:18:06.085Z,6.68
2023-03-26T02:20:37.749Z,6.73
2023-03-26T02:23:09.897Z,6.77
2023-03-26T02:25:43.757Z,6.71
2023-03-26T02:28:17.997Z,6.70
2023-03-26T02:30:49.510Z,6.62
2023-03-26T02:33:21.603Z,6.66
2023-03-26T02:35:53.579Z,6.70
2023-03-26T02:38:26.840Z,6.69
2023-03-26T02:40:58.154Z,6.75
2023-03-26T02:43:30.423Z,6.78
2023-03-26T02:46:02.106Z,6.80
2023-03-26T02:48:34.749Z,6.80
2023-03-26T02:51:06.732Z,6.82
2023-03-26T02:53:39.510Z,6.83
2023-03-26T02:56:12.600Z,6.87
2023-03-26T02:58:44.227Z,6.89
2023-03-26T03:01:18.635Z,6.88
2023-03-26T03:03:50.487Z,6.81
2023-03-26T03:06:22.252Z,6.81
2023-03-26T03:08:58.217Z,6.78
2023-03-26T03:11:29.870Z,6.82
2023-03-26T03:14:01.850Z,6.85
2023-03-26T03:16:33.519Z,6.86
2023-03-26T03:19:06.439Z,6.85
2023-03-26T03:21:38.165Z,6.87
2023-03-26T03:24:09.813Z,6.89
2023-03-26T03:26:42.392Z,6.90
2023-03-26T03:29:14.053Z,6.91
2023-03-26T03:31:45.533Z,6.84
2023-03-26T03:34:17.049Z,6.84
2023-03-26T03:36:50.024Z,6.87
2023-03-26T03:39:21.865Z,6.94
2023-03-26T03:41:53.574Z,6.97
2023-03-26T03:44:25.312Z,6.97
2023-03-26T03:46:57.064Z,7.01
2023-03-26T03:49:28.681Z,7.03
2023-03-26T03:52:00.178Z,6.96
2023-03-26T03:54:31.628Z,6.98
2023-03-26T03:57:03.417Z,6.96
2023-03-26T03:59:35.068Z,6.95
2023-03-26T04:02:06.565Z,7.00
2023-03-26T04:04:38.245Z,7.06
2023-03-26T04:07:09.721Z,7.04
2023-03-26T04:09:41.178Z,7.06
2023-03-26T04:12:12.662Z,7.09
2023-03-26T04:14:44.274Z,7.09
2023-03-26T04:17:15.861Z,7.03
2023-03-26T04:19:48.336Z,7.03
2023-03-26T04:22:19.906Z,7.04
2023-03-26T04:24:54.450Z,7.09
2023-03-26T04:27:31.440Z,7.06
2023-03-26T04:30:06.404Z,7.03
2023-03-26T04:32:40.371Z,7.07
2023-03-26T04:35:14.552Z,7.07
2023-03-26T04:37:46.457Z,7.06
2023-03-26T04:40:21.943Z,7.11
2023-03-26T04:42:54.572Z,7.11
2023-03-26T04:45:26.103Z,7.15
2023-03-26T04:47:58.431Z,7.16
2023-03-26T04:50:30.003Z,7.16
2023-03-26T04:53:02.416Z,7.19
2023-03-26T04:55:43.172Z,7.21
2023-03-26T04:58:15.026Z,7.23
2023-03-26T05:00:47.454Z,7.24
2023-03-26T05:03:20.928Z,7.28
2023-03-26T05:05:52.982Z,7.25
2023-03-26T05:08:24.924Z,7.26
2023-03-26T05:10:56.685Z,7.29
2023-03-26T05:13:28.404Z,7.30
2023-03-26T05:15:59.984Z,7.27
2023-03-26T05:18:32.302Z,7.28
2023-03-26T05:21:04.005Z,7.30
2023-03-26T05:23:35.590Z,7.32
2023-03-26T05:26:07.704Z,7.38
2023-03-26T05:28:39.299Z,7.36
2023-03-26T05:31:10.927Z,7.44
2023-03-26T05:33:42.494Z,7.45
2023-03-26T05:36:15.300Z,7.50
2023-03-26T05:38:49.305Z,7.49
2023-03-26T05:41:20.927Z,7.56
2023-03-26T05:43:52.592Z,7.61
2023-03-26T05:46:24.230Z,7.60
2023-03-26T05:48:55.829Z,7.64
2023-03-26T05:51:27.347Z,7.63
2023-03-26T05:53:58.893Z,7.67
2023-03-26T05:56:30.815Z,7.72
2023-03-26T05:59:02.372Z,7.76
2023-03-26T06:01:33.872Z,7.75
2023-03-26T06:04:05.754Z,7.80
2023-03-26T06:06:37.313Z,7.82
2023-03-26T06:09:08.844Z,7.88
2023-03-26T06:11:40.950Z,7.89
2023-03-26T06:14:12.402Z,7.98
2023-03-26T06:16:43.850Z,8.04
2023-03-26T06:19:15.769Z,8.03
2023-03-26T06:21:47.314Z,8.02
2023-03-26T06:24:20.007Z,8.02
2023-03-26T06:26:52.411Z,8.12
2023-03-26T06:29:24.691Z,8.15
2023-03-26T06:31:58.205Z,8.12
2023-03-26T06:34:35.346Z,8.17
2023-03-26T06:37:06.986Z,8.23
2023-03-26T06:39:38.525Z,8.22
2023-03-26T06:42:10.074Z,8.30
2023-03-26T06:44:41.653Z,8.29
2023-03-26T06:47:13.199Z,8.36
2023-03-26T06:49:45.422Z,8.44
2023-03-26T06:52:16.872Z,8.43
2023-03-26T06:54:48.419Z,8.42
2023-03-26T06:57:21.023Z,8.41
2023-03-26T06:59:52.487Z,8.40
2023-03-26T07:02:24.011Z,8.41
2023-03-26T07:04:55.696Z,8.43
2023-03-26T07:07:27.247Z,8.47
2023-03-26T07:09:58.720Z,8.49
2023-03-26T07:12:30.275Z,8.50
2023-03-26T07:15:03.509Z,8.50
2023-03-26T07:17:35.086Z,8.46
2023-03-26T07:20:08.104Z,8.30
2023-03-26T07:22:40.223Z,8.32
2023-03-26T07:25:14.555Z,8.32
2023-03-26T07:28:12.805Z,8.33
2023-03-26T07:30:53.467Z,8.30
2023-03-26T07:33:40.035Z,8.34
2023-03-26T07:36:23.266Z,8.32
2023-03-26T07:39:22.579Z,8.35
2023-03-26T07:42:14.294Z,8.35
2023-03-26T07:45:07.195Z,8.42
2023-03-26T07:47:41.834Z,8.45
2023-03-26T07:50:19.082Z,8.54
2023-03-26T07:52:51.388Z,8.56
2023-03-26T07:55:23.241Z,8.60
2023-03-26T07:58:00.422Z,8.50
2023-03-26T08:00:42.041Z,8.55
2023-03-26T08:03:51.010Z,8.54
2023-03-26T08:06:36.197Z,8.65
2023-03-26T08:09:13.673Z,8.64
2023-03-26T08:11:59.923Z,8.72
2023-03-26T08:14:55.481Z,8.77
2023-03-26T08:17:35.473Z,8.80
2023-03-26T08:20:18.926Z,8.82
2023-03-26T08:22:57.437Z,8.91
2023-03-26T08:25:33.243Z,9.01
2023-03-26T08:28:29.878Z,9.15
2023-03-26T08:31:03.050Z,9.10
2023-03-26T08:33:38.257Z,9.18
2023-03-26T08:36:10.485Z,9.28
2023-03-26T08:38:41.994Z,9.37
2023-03-26T08:41:18.835Z,9.40
2023-03-26T08:44:02.614Z,9.45
2023-03-26T08:47:16.193Z,9.42
2023-03-26T08:50:12.386Z,9.31
2023-03-26T08:53:02.571Z,9.30
2023-03-26T08:55:46.054Z,9.19
2023-03-26T08:58:38.773Z,9.11
2023-03-26T09:01:32.073Z,8.99
2023-03-26T09:04:34.373Z,8.93
2023-03-26T09:07:41.389Z,8.85
2023-03-26T09:10:34.272Z,8.81
2023-03-26T09:13:21.821Z,8.73
2023-03-26T09:16:11.878Z,8.71
2023-03-26T09:19:01.913Z,8.76
2023-03-26T09:21:50.494Z,8.77
2023-03-26T09:24:53.991Z,8.77
2023-03-26T09:27:37.534Z,8.74
2023-03-26T09:30:51.331Z,8.77
2023-03-26T09:33:22.821Z,8.71
2023-03-26T09:36:10.411Z,8.70
2023-03-26T09:38:47.061Z,8.65
2023-03-26T09:41:46.766Z,8.61
2023-03-26T09:44:51.577Z,8.55
2023-03-26T09:47:43.407Z,8.64
2023-03-26T09:50:40.146Z,8.67
2023-03-26T09:53:27.518Z,8.66
2023-03-26T09:56:43.463Z,8.73
2023-03-26T09:59:17.552Z,8.82
2023-03-26T10:02:15.510Z,8.86
2023-03-26T10:05:22.476Z,8.92
2023-03-26T10:08:10.330Z,8.93
2023-03-26T10:10:55.779Z,8.91
2023-03-26T10:14:00.336Z,8.89
2023-03-26T10:16:42.288Z,8.93
2023-03-26T10:19:43.131Z,9.04
2023-03-26T10:22:27.320Z,9.09
2023-03-26T10:25:36.383Z,9.11
2023-03-26T10:28:31.263Z,8.90
2023-03-26T10:31:34.341Z,8.84
2023-03-26T10:34:28.188Z,8.58
2023-03-26T10:37:13.604Z,8.63
2023-03-26T10:40:06.870Z,8.65
2023-03-26T10:42:53.338Z,8.62
2023-03-26T10:45:30.479Z,8.42
2023-03-26T10:48:21.453Z,8.14
2023-03-26T10:51:12.881Z,8.24
2023-03-26T10:53:49.607Z,8.26
2023-03-26T10:56:21.131Z,8.24
2023-03-26T10:58:56.757Z,8.29
2023-03-26T11:01:43.443Z,8.29
2023-03-26T11:04:17.710Z,8.44
2023-03-26T11:07:04.943Z,8.44
2023-03-26T11:09:48.912Z,8.30
2023-03-26T11:12:32.088Z,8.65
2023-03-26T11:15:42.665Z,8.90
2023-03-26T11:18:28.586Z,8.86
2023-03-26T11:21:19.950Z,8.92
2023-03-26T11:24:30.667Z,9.01
2023-03-26T11:27:19.708Z,8.69
2023-03-26T11:30:07.315Z,8.77
2023-03-26T11:32:45.981Z,8.69
2023-03-26T11:35:39.622Z,8.47
2023-03-26T11:38:26.477Z,8.20
2023-03-26T11:41:02.890Z,8.08
2023-03-26T11:43:36.594Z,8.00
2023-03-26T11:46:13.050Z,8.11
2023-03-26T11:48:57.439Z,8.08
2023-03-26T11:51:34.547Z,8.20
2023-03-26T11:54:08.043Z,8.23
2023-03-26T11:57:05.174Z,8.12
2023-03-26T11:59:49.074Z,8.17
2023-03-26T12:02:33.945Z,8.21
2023-03-26T12:05:12.175Z,8.25
2023-03-26T12:07:53.066Z,8.57
2023-03-26T12:10:37.790Z,9.03
2023-03-26T12:13:24.130Z,9.29
2023-03-26T12:16:04.401Z,9.36
2023-03-26T12:18:38.170Z,9.74
2023-03-26T12:21:10.125Z,9.61
2023-03-26T12:23:58.925Z,9.68
2023-03-26T12:26:42.446Z,9.90
2023-03-26T12:29:17.659Z,10.03
2023-03-26T12:31:54.849Z,10.10
2023-03-26T12:34:39.604Z,9.59
2023-03-26T12:37:38.484Z,9.54
2023-03-26T12:40:32.547Z,9.41
2023-03-26T12:44:54.978Z,9.53
2023-03-26T12:47:57.772Z,9.60
2023-03-26T12:49:18.592Z,9.58
2023-03-26T12:51:54.142Z,9.60
2023-03-26T12:54:44.161Z,9.62
2023-03-26T12:57:25.261Z,9.52
2023-03-26T13:00:27.049Z,9.51
2023-03-26T13:03:01.589Z,9.38
2023-03-26T13:06:02.313Z,9.51
2023-03-26T13:08:57.480Z,9.51
2023-03-26T13:11:55.202Z,9.52
2023-03-26T13:14:51.133Z,9.47
2023-03-26T13:18:07.599Z,9.42
2023-03-26T13:21:03.197Z,9.31
2023-03-26T13:23:37.448Z,9.30
2023-03-26T13:26:29.290Z,9.40
2023-03-26T13:29:20.409Z,9.47
2023-03-26T13:31:54.614Z,9.32
2023-03-26T13:34:54.559Z,9.35
2023-03-26T13:37:45.793Z,9.30
2023-03-26T13:40:29.308Z,9.24
2023-03-26T13:43:19.269Z,9.31
2023-03-26T13:46:14.918Z,9.36
2023-03-26T13:48:54.934Z,9.38
2023-03-26T13:51:47.498Z,9.31
2023-03-26T13:55:03.836Z,9.47
2023-03-26T13:57:41.579Z,9.44
2023-03-26T14:00:18.226Z,9.54
2023-03-26T14:02:58.028Z,9.44
2023-03-26T14:05:42.613Z,9.29
2023-03-26T14:08:30.640Z,8.78
2023-03-26T14:11:19.342Z,8.40
2023-03-26T14:13:59.942Z,8.06
2023-03-26T14:16:39.913Z,7.88
2023-03-26T14:19:49.566Z,7.90
2023-03-26T14:22:47.372Z,8.07
2023-03-26T14:25:46.685Z,7.79
2023-03-26T14:28:30.272Z,7.86
2023-03-26T14:31:14.000Z,8.16
2023-03-26T14:34:10.473Z,8.06
2023-03-26T14:37:06.036Z,8.32
2023-03-26T14:39:49.779Z,8.48
2023-03-26T14:42:31.581Z,8.60
2023-03-26T14:45:40.683Z,8.78
2023-03-26T14:48:30.607Z,8.90
2023-03-26T14:51:20.577Z,8.93
2023-03-26T14:53:55.352Z,8.99
2023-03-26T14:56:42.171Z,9.08
2023-03-26T14:59:44.823Z,9.17
2023-03-26T15:02:22.477Z,9.23
2023-03-26T15:04:54.211Z,9.33
2023-03-26T15:07:56.818Z,9.43
2023-03-26T15:10:55.772Z,9.51
2023-03-26T15:13:52.277Z,9.46
2023-03-26T15:17:21.647Z,9.47
2023-03-26T15:20:17.930Z,9.46
2023-03-26T15:23:20.314Z,9.46
2023-03-26T15:26:29.055Z,9.42
2023-03-26T15:29:37.690Z,9.40
2023-03-26T15:32:49.650Z,9.37
2023-03-26T15:35:30.112Z,9.26
2023-03-26T15:38:29.908Z,9.24
2023-03-26T15:41:19.095Z,9.18
2023-03-26T15:47:17.451Z,8.93
2023-03-26T15:50:19.018Z,8.75
2023-03-26T15:52:54.322Z,8.46
2023-03-26T15:55:57.210Z,8.22
2023-03-26T15:58:31.797Z,8.28
2023-03-26T16:01:34.098Z,8.22
2023-03-26T16:04:09.124Z,8.16
2023-03-26T16:06:56.966Z,8.12
2023-03-26T16:09:31.119Z,8.02
2023-03-26T16:12:11.809Z,8.30
2023-03-26T16:15:07.359Z,8.44
2023-03-26T16:18:10.390Z,8.47
2023-03-26T16:20:47.277Z,8.41
2023-03-26T16:23:30.559Z,8.56
2023-03-26T16:26:11.098Z,8.36
2023-03-26T16:28:45.590Z,8.09
2023-03-26T16:31:23.578Z,8.28
2023-03-26T16:34:11.290Z,8.39
2023-03-26T16:36:45.172Z,8.08
2023-03-26T16:39:38.400Z,8.18
2023-03-26T16:42:15.805Z,8.12
2023-03-26T16:45:28.745Z,8.03
2023-03-26T16:48:23.758Z,7.84
2023-03-26T16:51:04.864Z,7.90
2023-03-26T16:53:42.675Z,7.92
2023-03-26T16:56:42.740Z,7.78
2023-03-26T17:00:05.420Z,7.83
2023-03-26T17:02:42.460Z,7.94
2023-03-26T17:05:34.248Z,7.92
2023-03-26T17:08:35.419Z,7.95
2023-03-26T17:11:20.481Z,7.89
2023-03-26T17:14:31.419Z,7.90
2023-03-26T17:17:02.954Z,7.92
2023-03-26T17:19:54.348Z,7.91
2023-03-26T17:23:00.519Z,7.86
2023-03-26T17:25:40.468Z,7.76
2023-03-26T17:28:20.893Z,7.77
2023-03-26T17:31:03.296Z,7.73
2023-03-26T17:33:38.779Z,7.71
2023-03-26T17:36:21.332Z,7.64
2023-03-26T17:39:00.379Z,7.58
2023-03-26T17:41:55.392Z,7.57
2023-03-26T17:44:46.131Z,7.48
2023-03-26T17:47:33.634Z,7.39
2023-03-26T17:50:26.834Z,7.40
2023-03-26T17:53:32.241Z,7.28
2023-03-26T17:56:11.933Z,7.08
2023-03-26T17:58:49.070Z,6.81
2023-03-26T18:01:32.158Z,6.75
2023-03-26T18:04:08.075Z,6.58
2023-03-26T18:06:58.523Z,6.41
2023-03-26T18:09:53.061Z,6.20
2023-03-26T18:12:33.521Z,6.14
2023-03-26T18:15:29.981Z,6.18
2023-03-26T18:18:10.648Z,6.07
2023-03-26T18:20:46.884Z,6.03
2023-03-26T18:23:24.424Z,6.01
2023-03-26T18:26:08.178Z,5.99
2023-03-26T18:28:45.499Z,5.98
2023-03-26T18:31:24.079Z,5.85
2023-03-26T18:34:00.554Z,5.77
2023-03-26T18:36:32.405Z,5.79
2023-03-26T18:39:04.888Z,5.64
2023-03-26T18:41:42.594Z,5.61
2023-03-26T18:44:16.976Z,5.59
2023-03-26T18:46:48.964Z,5.54
2023-03-26T18:49:21.408Z,5.53
2023-03-26T18:51:57.332Z,5.49
2023-03-26T18:54:35.420Z,5.39
2023-03-26T18:57:18.790Z,5.47
2023-03-26T18:59:52.581Z,5.50
2023-03-26T19:02:26.206Z,5.38
2023-03-26T19:04:58.094Z,5.42
2023-03-26T19:07:30.050Z,5.44
2023-03-26T19:10:02.105Z,5.42
2023-03-26T19:12:35.702Z,5.35
2023-03-26T19:15:11.877Z,5.38
2023-03-26T19:17:51.518Z,5.42
2023-03-26T19:20:27.487Z,5.48
2023-03-26T19:22:59.083Z,5.48
2023-03-26T19:25:43.413Z,5.50
2023-03-26T19:28:29.329Z,5.54
2023-03-26T19:31:20.779Z,5.55
2023-03-26T19:33:59.250Z,5.50
2023-03-26T19:36:34.601Z,5.46
2023-03-26T19:39:12.952Z,5.50
2023-03-26T19:41:51.839Z,5.42
2023-03-26T19:44:28.994Z,5.46
2023-03-26T19:47:06.777Z,5.52
2023-03-26T19:49:53.136Z,5.50
2023-03-26T19:52:36.394Z,5.49
2023-03-26T19:55:10.129Z,5.59
2023-03-26T19:57:42.640Z,5.58
2023-03-26T20:00:16.796Z,5.59
2023-03-26T20:02:49.438Z,5.49
2023-03-26T20:05:27.248Z,5.55
2023-03-26T20:08:00.986Z,5.57
2023-03-26T20:10:35.148Z,5.49
2023-03-26T20:13:15.133Z,5.42
2023-03-26T20:16:05.940Z,5.41
2023-03-26T20:18:38.850Z,5.44
2023-03-26T20:21:14.233Z,5.45
2023-03-26T20:23:45.853Z,5.49
2023-03-26T20:26:18.772Z,5.49
2023-03-26T20:28:53.551Z,5.52
2023-03-26T20:31:26.666Z,5.55
2023-03-26T20:33:59.693Z,5.55
2023-03-26T20:36:33.687Z,5.55
2023-03-26T20:39:06.610Z,5.50
2023-03-26T20:41:46.085Z,5.56
2023-03-26T20:44:19.607Z,5.49
2023-03-26T20:46:51.466Z,5.47
2023-03-26T20:49:29.440Z,5.47
2023-03-26T20:52:01.218Z,5.40
2023-03-26T20:54:32.864Z,5.47
2023-03-26T20:57:04.401Z,5.43
2023-03-26T20:59:36.178Z,5.38
2023-03-26T21:02:10.113Z,5.44
2023-03-26T21:04:41.623Z,5.43
2023-03-26T21:07:18.315Z,5.45
2023-03-26T21:09:50.520Z,5.43
2023-03-26T21:12:33.793Z,5.40
2023-03-26T21:15:13.518Z,5.42
2023-03-26T21:17:53.050Z,5.31
2023-03-26T21:20:28.152Z,5.37
2023-03-26T21:23:30.383Z,5.25
2023-03-26T21:26:25.220Z,5.28
2023-03-26T21:29:00.872Z,5.15
2023-03-26T21:31:36.655Z,5.17
2023-03-26T21:34:09.645Z,5.09
2023-03-26T21:36:42.007Z,5.16
2023-03-26T21:39:13.617Z,5.15
2023-03-26T21:41:48.282Z,5.11
2023-03-26T21:44:21.394Z,5.08
2023-03-26T21:46:53.122Z,5.17
2023-03-26T21:49:25.145Z,5.22
2023-03-26T21:51:57.157Z,5.22
2023-03-26T21:54:31.631Z,5.19
2023-03-26T21:57:38.757Z,5.14
2023-03-26T22:00:16.166Z,5.21
2023-03-26T22:02:59.995Z,5.16
2023-03-26T22:05:43.937Z,5.19
2023-03-26T22:08:33.029Z,5.22
2023-03-26T22:11:06.485Z,5.17
2023-03-26T22:13:41.690Z,5.14
2023-03-26T22:16:13.174Z,5.04
2023-03-26T22:18:44.700Z,5.07
2023-03-26T22:21:16.546Z,5.00
2023-03-26T22:23:52.692Z,5.06
2023-03-26T22:26:25.009Z,5.07
2023-03-26T22:28:57.188Z,4.97
2023-03-26T22:31:29.398Z,5.02
2023-03-26T22:34:00.958Z,4.99
2023-03-26T22:36:32.536Z,5.04
2023-03-26T22:39:04.553Z,4.97
2023-03-26T22:41:37.156Z,5.03
2023-03-26T22:44:19.872Z,4.99
2023-03-26T22:46:52.455Z,4.98
2023-03-26T22:49:27.348Z,4.93
2023-03-26T22:51:58.940Z,4.96
2023-03-26T22:54:30.869Z,4.98
2023-03-26T22:57:03.675Z,5.00
2023-03-26T22:59:35.724Z,4.93
2023-03-26T23:02:09.814Z,4.92
2023-03-26T23:04:42.801Z,4.92
2023-03-26T23:07:14.929Z,4.96
2023-03-26T23:09:46.952Z,4.91
2023-03-26T23:12:18.459Z,4.82
2023-03-26T23:14:52.838Z,4.83
2023-03-26T23:17:24.715Z,4.87
2023-03-26T23:19:56.188Z,4.71
2023-03-26T23:22:28.109Z,4.74
2023-03-26T23:24:59.629Z,4.66
2023-03-26T23:27:31.241Z,4.72
2023-03-26T23:30:04.341Z,4.73
2023-03-26T23:32:37.830Z,4.70
2023-03-26T23:35:10.077Z,4.68
2023-03-26T23:37:42.648Z,4.66
2023-03-26T23:40:14.353Z,4.63
2023-03-26T23:42:47.436Z,4.60
2023-03-26T23:45:18.933Z,4.67
2023-03-26T23:47:50.411Z,4.69
2023-03-26T23:50:23.508Z,4.72
2023-03-26T23:52:58.852Z,4.71
2023-03-26T23:55:30.491Z,4.72
2023-03-26T23:58:03.365Z,4.61
